createdAt,value
2017-10-10T00:01:09.351Z,16.63
2017-10-10T00:03:38.004Z,16.40
2017-10-10T00:06:06.628Z,15.80
2017-10-10T00:08:34.932Z,16.47
2017-10-10T00:11:03.446Z,13.93
2017-10-10T00:13:32.432Z,12.23
2017-10-10T00:16:01.476Z,15.57
2017-10-10T00:18:29.811Z,13.30
2017-10-10T00:20:58.441Z,11.90
2017-10-10T00:23:26.851Z,12.27
2017-10-10T00:25:55.135Z,12.00
2017-10-10T00:28:24.499Z,11.37
2017-10-10T00:30:52.804Z,13.13
2017-10-10T00:33:21.554Z,12.60
2017-10-10T00:35:50.319Z,12.87
2017-10-10T00:38:18.951Z,12.43
2017-10-10T00:40:47.843Z,12.20
2017-10-10T00:43:16.787Z,10.90
2017-10-10T00:45:45.507Z,11.47
2017-10-10T00:48:14.578Z,10.50
2017-10-10T00:50:42.932Z,12.73
2017-10-10T00:53:11.439Z,12.20
2017-10-10T00:55:40.451Z,10.90
2017-10-10T00:58:08.940Z,12.50
2017-10-10T01:00:37.939Z,11.00
2017-10-10T01:03:08.653Z,8.80
2017-10-10T01:05:37.191Z,10.13
2017-10-10T01:08:06.107Z,8.37
2017-10-10T01:10:34.891Z,8.40
2017-10-10T01:13:03.464Z,7.13
2017-10-10T01:15:32.255Z,8.30
2017-10-10T01:18:01.468Z,7.63
2017-10-10T01:20:30.147Z,7.00
2017-10-10T01:22:58.641Z,8.30
2017-10-10T01:25:27.127Z,6.97
2017-10-10T01:27:55.971Z,8.23
2017-10-10T01:30:24.704Z,7.07
2017-10-10T01:32:53.154Z,6.17
2017-10-10T01:35:22.274Z,6.60
2017-10-10T01:37:50.659Z,6.13
2017-10-10T01:40:19.492Z,5.40
2017-10-10T01:42:47.944Z,5.67
2017-10-10T01:45:17.942Z,5.77
2017-10-10T01:47:47.088Z,6.27
2017-10-10T01:50:15.830Z,6.53
2017-10-10T01:52:44.151Z,6.50
2017-10-10T01:55:12.991Z,5.20
2017-10-10T01:57:41.733Z,6.57
2017-10-10T02:00:11.097Z,6.00
2017-10-10T02:02:39.836Z,6.77
2017-10-10T02:05:08.445Z,5.70
2017-10-10T02:07:36.856Z,6.80
2017-10-10T02:10:05.670Z,6.00
2017-10-10T02:12:34.200Z,6.27
2017-10-10T02:15:02.528Z,5.20
2017-10-10T02:17:31.500Z,5.27
2017-10-10T02:20:00.665Z,6.37
2017-10-10T02:22:29.325Z,6.23
2017-10-10T02:24:57.658Z,7.53
2017-10-10T02:27:26.314Z,7.93
2017-10-10T02:29:54.996Z,9.40
2017-10-10T02:32:24.199Z,10.00
2017-10-10T02:34:52.515Z,10.77
2017-10-10T02:37:21.033Z,10.97
2017-10-10T02:39:49.506Z,12.20
2017-10-10T02:42:18.019Z,13.30
2017-10-10T02:44:46.653Z,13.17
2017-10-10T02:47:15.499Z,15.00
2017-10-10T02:49:44.704Z,15.33
2017-10-10T02:52:13.591Z,17.33
2017-10-10T02:54:42.516Z,16.50
2017-10-10T02:57:11.171Z,15.27
2017-10-10T02:59:39.783Z,14.97
2017-10-10T03:02:08.112Z,20.30
2017-10-10T03:04:36.544Z,21.30
2017-10-10T03:07:05.791Z,18.40
2017-10-10T03:09:34.443Z,18.90
2017-10-10T03:12:03.058Z,19.30
2017-10-10T03:14:32.435Z,20.27
2017-10-10T03:17:01.299Z,22.00
2017-10-10T03:19:30.599Z,22.53
2017-10-10T03:21:59.185Z,22.93
2017-10-10T03:24:28.411Z,21.57
2017-10-10T03:26:57.267Z,23.47
2017-10-10T03:29:26.105Z,21.37
2017-10-10T03:31:55.004Z,23.37
2017-10-10T03:34:23.463Z,24.07
2017-10-10T03:36:52.159Z,25.13
2017-10-10T03:39:21.503Z,24.50
2017-10-10T03:41:50.471Z,24.53
2017-10-10T03:44:18.991Z,22.80
2017-10-10T03:46:47.991Z,23.57
2017-10-10T03:49:16.772Z,25.10
2017-10-10T03:51:45.203Z,31.37
2017-10-10T03:54:14.632Z,30.03
2017-10-10T03:56:43.100Z,27.80
2017-10-10T03:59:11.872Z,28.23
2017-10-10T04:01:41.155Z,28.70
2017-10-10T04:04:10.320Z,29.00
2017-10-10T04:06:38.880Z,28.03
2017-10-10T04:09:07.348Z,30.60
2017-10-10T04:11:36.019Z,32.00
2017-10-10T04:14:04.643Z,30.50
2017-10-10T04:16:32.967Z,30.57
2017-10-10T04:19:01.695Z,27.87
2017-10-10T04:21:30.313Z,29.60
2017-10-10T04:23:58.678Z,28.33
2017-10-10T04:26:27.263Z,30.10
2017-10-10T04:28:56.066Z,24.43
2017-10-10T04:31:24.868Z,26.47
2017-10-10T04:33:53.499Z,28.37
2017-10-10T04:36:22.325Z,27.53
2017-10-10T04:38:50.895Z,30.40
2017-10-10T04:41:19.449Z,28.17
2017-10-10T04:43:48.163Z,25.23
2017-10-10T04:46:17.076Z,30.13
2017-10-10T04:48:45.517Z,25.23
2017-10-10T04:51:14.037Z,27.90
2017-10-10T04:53:42.559Z,25.83
2017-10-10T04:56:11.768Z,26.73
2017-10-10T04:58:40.251Z,27.13
2017-10-10T05:01:08.835Z,30.50
2017-10-10T05:03:38.082Z,29.93
2017-10-10T05:06:06.535Z,29.30
2017-10-10T05:08:35.375Z,29.37
2017-10-10T05:11:04.144Z,28.97
2017-10-10T05:13:32.759Z,29.97
2017-10-10T05:16:01.072Z,29.27
2017-10-10T05:18:29.752Z,29.43
2017-10-10T05:20:58.435Z,27.83
2017-10-10T05:23:26.945Z,28.57
2017-10-10T05:25:55.818Z,26.97
2017-10-10T05:28:24.334Z,28.07
2017-10-10T05:30:52.902Z,30.20
2017-10-10T05:33:21.918Z,29.90
2017-10-10T05:35:51.018Z,28.10
2017-10-10T05:38:19.375Z,26.70
2017-10-10T05:40:47.955Z,27.73
2017-10-10T05:43:16.335Z,27.13
2017-10-10T05:45:45.535Z,26.40
2017-10-10T05:48:14.139Z,23.50
2017-10-10T05:50:42.764Z,22.87
2017-10-10T05:53:11.943Z,25.30
2017-10-10T05:55:40.443Z,25.60
2017-10-10T05:58:09.799Z,26.47
2017-10-10T06:00:38.864Z,25.37
2017-10-10T06:03:07.815Z,23.77
2017-10-10T06:05:36.471Z,28.00
2017-10-10T06:08:05.323Z,26.10
2017-10-10T06:10:33.841Z,24.93
2017-10-10T06:13:02.660Z,26.73
2017-10-10T06:15:30.948Z,25.63
2017-10-10T06:18:00.047Z,25.87
2017-10-10T06:20:30.868Z,20.83
2017-10-10T06:22:59.423Z,23.17
2017-10-10T06:25:28.587Z,24.73
2017-10-10T06:27:57.503Z,26.20
2017-10-10T06:30:25.982Z,22.23
2017-10-10T06:32:54.779Z,24.27
2017-10-10T06:35:23.315Z,28.60
2017-10-10T06:37:52.041Z,21.50
2017-10-10T06:40:20.571Z,24.83
2017-10-10T06:42:50.583Z,27.60
2017-10-10T06:45:19.488Z,28.37
2017-10-10T06:47:51.706Z,28.03
2017-10-10T06:50:20.847Z,30.17
2017-10-10T06:52:50.319Z,26.73
2017-10-10T06:55:18.651Z,29.73
2017-10-10T06:57:47.311Z,28.43
2017-10-10T07:00:16.569Z,27.10
2017-10-10T07:02:45.420Z,30.37
2017-10-10T07:05:14.425Z,29.50
2017-10-10T07:07:42.890Z,26.97
2017-10-10T07:10:11.839Z,34.40
2017-10-10T07:12:40.484Z,34.97
2017-10-10T07:15:10.641Z,34.03
2017-10-10T07:17:39.402Z,28.77
2017-10-10T07:20:07.775Z,33.97
2017-10-10T07:22:38.074Z,33.57
2017-10-10T07:25:07.103Z,30.80
2017-10-10T07:27:36.165Z,31.53
2017-10-10T07:30:07.731Z,37.67
2017-10-10T07:32:37.688Z,32.43
2017-10-10T07:35:06.607Z,27.20
2017-10-10T07:37:36.521Z,27.30
2017-10-10T07:40:05.714Z,28.20
2017-10-10T07:42:35.613Z,29.40
2017-10-10T07:45:06.142Z,25.57
2017-10-10T07:47:36.408Z,30.53
2017-10-10T07:50:05.966Z,27.03
2017-10-10T07:52:34.429Z,29.80
2017-10-10T07:55:03.294Z,27.37
2017-10-10T07:57:31.823Z,22.57
2017-10-10T08:00:00.723Z,24.00
2017-10-10T08:02:29.323Z,28.40
2017-10-10T08:04:58.065Z,23.53
2017-10-10T08:07:27.703Z,26.77
2017-10-10T08:09:56.735Z,23.33
2017-10-10T08:12:25.537Z,25.93
2017-10-10T08:14:54.978Z,25.57
2017-10-10T08:17:23.319Z,24.87
2017-10-10T08:19:52.383Z,25.70
2017-10-10T08:22:21.698Z,24.40
2017-10-10T08:24:50.259Z,26.80
2017-10-10T08:27:18.923Z,26.07
2017-10-10T08:29:47.798Z,26.53
2017-10-10T08:32:17.160Z,29.10
2017-10-10T08:34:47.200Z,28.07
2017-10-10T08:37:15.766Z,26.60
2017-10-10T08:39:44.812Z,28.47
2017-10-10T08:42:13.250Z,30.37
2017-10-10T08:44:43.411Z,25.60
2017-10-10T08:47:13.223Z,31.50
2017-10-10T08:49:42.362Z,27.73
2017-10-10T08:52:11.920Z,35.57
2017-10-10T08:54:40.952Z,36.97
2017-10-10T08:57:09.780Z,29.40
2017-10-10T08:59:38.703Z,33.10
2017-10-10T09:02:07.753Z,27.47
2017-10-10T09:04:36.415Z,28.70
2017-10-10T09:07:05.352Z,33.57
2017-10-10T09:09:34.035Z,31.20
2017-10-10T09:12:02.523Z,26.60
2017-10-10T09:14:31.251Z,29.13
2017-10-10T09:17:01.427Z,23.63
2017-10-10T09:19:30.218Z,26.30
2017-10-10T09:21:58.827Z,24.60
2017-10-10T09:24:27.519Z,23.50
2017-10-10T09:26:56.166Z,22.40
2017-10-10T09:29:25.623Z,25.20
2017-10-10T09:31:54.171Z,25.97
2017-10-10T09:34:23.190Z,28.50
2017-10-10T09:36:51.623Z,25.37
2017-10-10T09:39:20.619Z,23.00
2017-10-10T09:41:49.591Z,26.07
2017-10-10T09:44:19.049Z,22.87
2017-10-10T09:46:48.006Z,25.23
2017-10-10T09:49:16.588Z,22.97
2017-10-10T09:51:45.095Z,27.43
2017-10-10T09:54:13.691Z,28.93
2017-10-10T09:56:42.603Z,22.60
2017-10-10T09:59:11.451Z,29.40
2017-10-10T10:01:39.936Z,23.50
2017-10-10T10:04:08.468Z,24.07
2017-10-10T10:06:37.225Z,22.97
2017-10-10T10:09:05.698Z,22.93
2017-10-10T10:11:34.633Z,22.63
2017-10-10T10:14:04.626Z,20.37
2017-10-10T10:16:33.282Z,21.50
2017-10-10T10:19:02.071Z,21.50
2017-10-10T10:21:31.653Z,25.93
2017-10-10T10:24:00.248Z,20.53
2017-10-10T10:26:29.045Z,19.90
2017-10-10T10:28:57.683Z,23.13
2017-10-10T10:31:26.749Z,21.33
2017-10-10T10:33:56.148Z,18.63
2017-10-10T10:36:25.612Z,19.77
2017-10-10T10:38:53.992Z,19.50
2017-10-10T10:41:22.367Z,21.83
2017-10-10T10:43:51.750Z,20.90
2017-10-10T10:46:20.864Z,18.90
2017-10-10T10:48:49.255Z,22.57
2017-10-10T10:51:18.012Z,23.93
2017-10-10T10:53:47.292Z,16.07
2017-10-10T10:56:16.815Z,21.07
2017-10-10T10:58:45.371Z,18.93
2017-10-10T11:01:14.325Z,18.73
2017-10-10T11:03:43.031Z,24.07
2017-10-10T11:06:11.569Z,26.50
2017-10-10T11:08:40.295Z,26.27
2017-10-10T11:11:09.012Z,19.93
2017-10-10T11:13:37.752Z,19.63
2017-10-10T11:16:06.859Z,19.80
2017-10-10T11:18:35.684Z,31.37
2017-10-10T11:21:04.992Z,28.60
2017-10-10T11:23:33.849Z,19.77
2017-10-10T11:26:02.708Z,25.73
2017-10-10T11:28:32.531Z,30.37
2017-10-10T11:31:01.877Z,40.03
2017-10-10T11:33:30.360Z,64.93
2017-10-10T11:35:58.868Z,29.03
2017-10-10T11:38:27.899Z,16.60
2017-10-10T11:40:56.241Z,33.00
2017-10-10T11:43:24.655Z,22.87
2017-10-10T11:45:53.424Z,26.90
2017-10-10T11:48:22.883Z,24.00
2017-10-10T11:50:52.856Z,15.27
2017-10-10T11:53:21.164Z,22.10
2017-10-10T11:55:49.785Z,33.37
2017-10-10T11:58:19.223Z,17.03
2017-10-10T12:00:47.530Z,17.00
2017-10-10T12:03:15.811Z,27.40
2017-10-10T12:05:44.152Z,24.07
2017-10-10T12:08:13.863Z,16.37
2017-10-10T12:10:42.527Z,17.50
2017-10-10T12:13:11.752Z,15.77
2017-10-10T12:15:40.492Z,14.13
2017-10-10T12:18:09.454Z,12.43
2017-10-10T12:20:41.009Z,16.77
2017-10-10T12:23:11.447Z,14.57
2017-10-10T12:25:40.338Z,13.90
2017-10-10T12:28:08.740Z,13.23
2017-10-10T12:30:37.080Z,12.43
2017-10-10T12:33:05.543Z,12.33
2017-10-10T12:35:33.925Z,13.83
2017-10-10T12:38:02.284Z,11.43
2017-10-10T12:40:31.596Z,17.63
2017-10-10T12:43:02.683Z,11.30
2017-10-10T12:45:31.441Z,10.27
2017-10-10T12:48:00.056Z,10.67
2017-10-10T12:50:28.507Z,22.60
2017-10-10T12:52:56.895Z,18.20
2017-10-10T12:55:26.395Z,11.13
2017-10-10T12:57:55.975Z,8.87
2017-10-10T13:00:24.515Z,9.43
2017-10-10T13:02:53.352Z,8.43
2017-10-10T13:05:22.676Z,7.33
2017-10-10T13:07:51.002Z,7.70
2017-10-10T13:10:19.279Z,7.37
2017-10-10T13:12:48.219Z,10.30
2017-10-10T13:15:16.780Z,9.20
2017-10-10T13:17:45.103Z,8.77
2017-10-10T13:20:14.000Z,6.97
2017-10-10T13:22:42.702Z,6.87
2017-10-10T13:25:11.667Z,6.50
2017-10-10T13:27:40.287Z,6.57
2017-10-10T13:30:09.339Z,7.00
2017-10-10T13:32:37.888Z,5.83
2017-10-10T13:35:07.351Z,5.63
2017-10-10T13:37:35.972Z,6.97
2017-10-10T13:40:04.884Z,7.10
2017-10-10T13:42:33.223Z,7.83
2017-10-10T13:45:01.546Z,7.33
2017-10-10T13:47:30.529Z,7.40
2017-10-10T13:49:58.865Z,7.47
2017-10-10T13:52:27.420Z,8.20
2017-10-10T13:54:56.205Z,7.80
2017-10-10T13:57:24.704Z,6.67
2017-10-10T13:59:53.267Z,8.07
2017-10-10T14:02:21.997Z,10.00
2017-10-10T14:04:50.687Z,9.33
2017-10-10T14:07:19.099Z,9.17
2017-10-10T14:09:47.729Z,11.03
2017-10-10T14:12:16.780Z,10.10
2017-10-10T14:14:45.688Z,10.70
2017-10-10T14:17:14.394Z,11.90
2017-10-10T14:19:43.251Z,11.37
2017-10-10T14:22:12.180Z,12.17
2017-10-10T14:24:40.742Z,11.30
2017-10-10T14:27:09.451Z,11.43
2017-10-10T14:29:38.059Z,9.70
2017-10-10T14:32:06.697Z,9.63
2017-10-10T14:34:35.353Z,8.90
2017-10-10T14:37:04.071Z,8.17
2017-10-10T14:39:33.211Z,8.83
2017-10-10T14:42:01.945Z,10.13
2017-10-10T14:44:30.367Z,9.10
2017-10-10T14:46:58.901Z,9.70
2017-10-10T14:49:27.251Z,8.13
2017-10-10T14:51:55.559Z,10.00
2017-10-10T14:54:24.224Z,9.43
2017-10-10T14:56:52.509Z,10.43
2017-10-10T14:59:21.027Z,10.20
2017-10-10T15:01:49.735Z,10.00
2017-10-10T15:04:18.412Z,10.17
2017-10-10T15:06:46.999Z,11.30
2017-10-10T15:09:15.563Z,11.17
2017-10-10T15:11:43.976Z,11.37
2017-10-10T15:14:13.168Z,12.20
2017-10-10T15:16:43.055Z,11.37
2017-10-10T15:19:11.579Z,13.80
2017-10-10T15:21:40.370Z,12.53
2017-10-10T15:24:08.804Z,13.40
2017-10-10T15:26:37.183Z,12.33
2017-10-10T15:29:05.845Z,13.50
2017-10-10T15:31:34.154Z,13.43
2017-10-10T15:34:02.845Z,13.30
2017-10-10T15:36:31.443Z,14.00
2017-10-10T15:38:59.769Z,15.17
2017-10-10T15:41:28.705Z,15.27
2017-10-10T15:43:57.399Z,13.30
2017-10-10T15:46:25.707Z,13.13
2017-10-10T15:48:55.111Z,13.37
2017-10-10T15:51:23.698Z,16.27
2017-10-10T15:53:56.440Z,14.33
2017-10-10T15:56:25.381Z,13.23
2017-10-10T15:58:56.967Z,13.57
2017-10-10T16:01:25.621Z,14.87
2017-10-10T16:03:54.012Z,13.77
2017-10-10T16:06:22.377Z,15.30
2017-10-10T16:08:51.356Z,16.43
2017-10-10T16:11:19.852Z,14.60
2017-10-10T16:13:48.208Z,14.97
2017-10-10T16:16:17.011Z,12.40
2017-10-10T16:18:45.619Z,15.43
2017-10-10T16:21:13.990Z,14.90
2017-10-10T16:23:42.915Z,14.97
2017-10-10T16:26:11.846Z,15.20
2017-10-10T16:28:40.567Z,13.90
2017-10-10T16:31:09.483Z,16.07
2017-10-10T16:33:37.911Z,14.50
2017-10-10T16:36:06.669Z,15.73
2017-10-10T16:38:35.027Z,16.60
2017-10-10T16:41:03.631Z,17.40
2017-10-10T16:43:31.923Z,17.47
2017-10-10T16:46:00.259Z,16.00
2017-10-10T16:48:29.101Z,18.53
2017-10-10T16:50:57.879Z,17.33
2017-10-10T16:53:26.171Z,19.27
2017-10-10T16:55:55.466Z,20.13
2017-10-10T16:58:24.584Z,18.43
2017-10-10T17:00:53.891Z,19.23
2017-10-10T17:03:22.499Z,17.17
2017-10-10T17:05:51.355Z,16.93
2017-10-10T17:08:19.857Z,19.00
2017-10-10T17:10:49.089Z,19.90
2017-10-10T17:13:18.031Z,19.43
2017-10-10T17:15:47.256Z,18.40
2017-10-10T17:18:15.737Z,21.27
2017-10-10T17:20:44.326Z,19.70
2017-10-10T17:23:12.803Z,21.77
2017-10-10T17:25:41.131Z,18.03
2017-10-10T17:28:10.119Z,20.57
2017-10-10T17:30:38.856Z,19.00
2017-10-10T17:33:07.480Z,19.97
2017-10-10T17:35:35.819Z,16.50
2017-10-10T17:38:04.608Z,19.47
2017-10-10T17:40:33.139Z,18.77
2017-10-10T17:43:01.608Z,20.30
2017-10-10T17:45:29.915Z,19.20
2017-10-10T17:47:59.177Z,20.20
2017-10-10T17:50:28.055Z,19.37
2017-10-10T17:52:56.344Z,19.53
2017-10-10T17:55:25.271Z,21.17
2017-10-10T17:57:54.559Z,21.07
2017-10-10T18:00:22.932Z,20.13
2017-10-10T18:02:51.719Z,22.50
2017-10-10T18:05:20.185Z,20.90
2017-10-10T18:07:48.515Z,21.50
2017-10-10T18:10:17.675Z,19.63
2017-10-10T18:12:46.282Z,20.73
2017-10-10T18:15:15.913Z,19.60
2017-10-10T18:17:44.437Z,19.17
2017-10-10T18:20:13.122Z,21.37
2017-10-10T18:22:42.013Z,19.27
2017-10-10T18:25:10.679Z,20.73
2017-10-10T18:27:40.060Z,18.90
2017-10-10T18:30:08.952Z,19.40
2017-10-10T18:32:37.651Z,18.17
2017-10-10T18:35:06.440Z,20.73
2017-10-10T18:37:35.041Z,16.87
2017-10-10T18:40:03.940Z,19.77
2017-10-10T18:42:34.988Z,18.60
2017-10-10T18:45:03.381Z,18.50
2017-10-10T18:47:31.841Z,20.13
2017-10-10T18:50:00.351Z,19.27
2017-10-10T18:52:29.059Z,18.20
2017-10-10T18:54:57.567Z,16.30
2017-10-10T18:57:26.500Z,18.40
2017-10-10T18:59:55.296Z,17.63
2017-10-10T19:02:24.035Z,18.67
2017-10-10T19:04:52.447Z,19.07
2017-10-10T19:07:21.240Z,16.10
2017-10-10T19:09:50.211Z,17.90
2017-10-10T19:12:19.032Z,18.40
2017-10-10T19:14:47.355Z,17.73
2017-10-10T19:17:15.664Z,17.33
2017-10-10T19:19:44.836Z,16.53
2017-10-10T19:22:14.051Z,16.97
2017-10-10T19:24:42.655Z,15.60
2017-10-10T19:27:11.312Z,14.67
2017-10-10T19:29:39.882Z,16.20
2017-10-10T19:32:08.231Z,14.30
2017-10-10T19:34:37.095Z,14.90
2017-10-10T19:37:06.174Z,13.43
2017-10-10T19:39:35.147Z,12.80
2017-10-10T19:42:04.036Z,13.87
2017-10-10T19:44:32.398Z,13.90
2017-10-10T19:47:01.440Z,13.17
2017-10-10T19:49:30.552Z,12.77
2017-10-10T19:51:59.158Z,14.70
2017-10-10T19:54:28.318Z,14.20
2017-10-10T19:56:56.926Z,16.67
2017-10-10T19:59:25.840Z,14.93
2017-10-10T20:01:54.598Z,14.60
2017-10-10T20:04:23.199Z,15.13
2017-10-10T20:06:51.929Z,13.00
2017-10-10T20:09:20.927Z,15.87
2017-10-10T20:11:49.313Z,14.23
2017-10-10T20:14:18.028Z,13.20
2017-10-10T20:16:46.698Z,14.67
2017-10-10T20:19:16.127Z,13.53
2017-10-10T20:21:45.071Z,14.17
2017-10-10T20:24:13.799Z,14.60
2017-10-10T20:26:42.180Z,14.10
2017-10-10T20:29:10.746Z,12.57
2017-10-10T20:31:39.252Z,12.60
2017-10-10T20:34:07.611Z,12.60
2017-10-10T20:36:35.923Z,13.23
2017-10-10T20:39:04.899Z,14.03
2017-10-10T20:41:33.618Z,12.70
2017-10-10T20:44:01.943Z,12.47
2017-10-10T20:46:30.882Z,11.77
2017-10-10T20:49:00.087Z,13.20
2017-10-10T20:51:28.540Z,14.60
2017-10-10T20:53:56.857Z,11.80
2017-10-10T20:56:25.486Z,13.73
2017-10-10T20:58:53.968Z,12.83
2017-10-10T21:01:22.287Z,13.10
2017-10-10T21:03:50.647Z,13.00
2017-10-10T21:06:20.019Z,13.37
2017-10-10T21:08:48.334Z,13.00
2017-10-10T21:11:18.000Z,11.50
2017-10-10T21:13:46.865Z,12.77
2017-10-10T21:16:15.513Z,13.80
2017-10-10T21:18:43.836Z,13.20
2017-10-10T21:21:12.475Z,12.43
2017-10-10T21:23:42.321Z,12.47
2017-10-10T21:26:11.252Z,12.80
2017-10-10T21:28:40.179Z,13.23
2017-10-10T21:31:08.967Z,13.73
2017-10-10T21:33:38.413Z,12.57
2017-10-10T21:36:06.995Z,12.30
2017-10-10T21:38:35.887Z,13.60
2017-10-10T21:41:05.375Z,13.67
2017-10-10T21:43:33.911Z,14.90
2017-10-10T21:46:02.443Z,15.40
2017-10-10T21:48:31.570Z,15.00
2017-10-10T21:51:00.840Z,14.27
2017-10-10T21:53:29.665Z,15.43
2017-10-10T21:55:58.419Z,14.53
2017-10-10T21:58:27.226Z,15.33
2017-10-10T22:00:56.230Z,14.60
2017-10-10T22:03:24.813Z,14.43
2017-10-10T22:05:53.142Z,14.20
2017-10-10T22:08:22.182Z,18.83
2017-10-10T22:10:50.786Z,15.33
2017-10-10T22:13:19.647Z,15.60
2017-10-10T22:15:48.352Z,13.33
2017-10-10T22:18:17.400Z,14.60
2017-10-10T22:20:46.462Z,13.33
2017-10-10T22:23:15.995Z,14.33
2017-10-10T22:25:45.062Z,14.27
2017-10-10T22:28:13.727Z,14.53
2017-10-10T22:30:43.447Z,15.40
2017-10-10T22:33:11.939Z,12.90
2017-10-10T22:35:41.467Z,14.97
2017-10-10T22:38:10.930Z,12.30
2017-10-10T22:40:39.388Z,14.30
2017-10-10T22:43:07.995Z,13.23
2017-10-10T22:45:37.347Z,13.20
2017-10-10T22:48:06.110Z,13.20
2017-10-10T22:50:34.627Z,14.80
2017-10-10T22:53:03.223Z,13.70
2017-10-10T22:55:31.907Z,14.77
2017-10-10T22:58:00.233Z,14.43
2017-10-10T23:00:29.276Z,14.53
2017-10-10T23:02:57.820Z,15.27
2017-10-10T23:05:26.879Z,15.57
2017-10-10T23:07:55.491Z,14.83
2017-10-10T23:10:24.043Z,16.43
2017-10-10T23:12:52.471Z,16.27
2017-10-10T23:15:21.358Z,16.23
2017-10-10T23:17:50.314Z,16.43
2017-10-10T23:20:19.055Z,15.90
2017-10-10T23:22:48.035Z,15.63
2017-10-10T23:25:16.885Z,16.30
2017-10-10T23:27:45.590Z,14.47
2017-10-10T23:30:14.564Z,14.47
2017-10-10T23:32:43.557Z,14.90
2017-10-10T23:35:11.987Z,12.10
2017-10-10T23:37:41.167Z,14.50
2017-10-10T23:40:10.927Z,14.40
2017-10-10T23:42:39.886Z,13.63
2017-10-10T23:45:09.027Z,13.30
2017-10-10T23:47:37.733Z,12.87
2017-10-10T23:50:06.024Z,13.00
2017-10-10T23:52:34.411Z,11.50
2017-10-10T23:55:03.043Z,13.97
2017-10-10T23:57:32.307Z,12.60
